NZAA/AKL METAR and TAF weather

Enter ICAO airport designator
Station Type Date Time Source
NZAA METAR 2020/01/28 11:30 UTC NOAA

NZAA 281130Z AUTO 25007KT 9999 SCT014/// BKN080/// 21/19 Q1016 TEMPO BKN014


Station Type Date Time Source
NZAA Decoded METAR 2020/01/28 11:30 UTC NOAA

Auckland Airport, New Zealand (NZAA) 37-01S 174-48E 6M
Jan 28, 2020 - 06:30 AM EST / 2020.01.28 1130 UTC
Wind: from the WSW (250 degrees) at 8 MPH (7 KT):0
Visibility: greater than 7 mile(s):0
Sky conditions: mostly cloudy
Temperature: 69 F (21 C)
Dew Point: 66 F (19 C)
Relative Humidity: 88%
Pressure (altimeter): 30.00 in. Hg (1016 hPa)
ob: NZAA 281130Z AUTO 25007KT 9999 SCT014/// BKN080/// 21/19 Q1016 TEMPO BKN014
cycle: 11

Station Type Date Time Source
NZAA TAF 2020/01/28 12:00 UTC NOAA

TAF NZAA 281156Z 2812/2912 24005KT 9999 -SHRA SCT012 BKN020
BECMG 2812/2814 BKN012 PROB30
TEMPO 2812/2819 5000 BR BKN008
BECMG 2819/2821 BKN020
BECMG 2823/2901 24015KT
FM290600 24005KT 9999 SCT025

Example: see airport list